Time;durP1;ratioP1;P1;durP2;ratioP2;P2;SDS_P1;SDS_P2;PMS_P1;PMS_P2;Temp;Humidity;BMP_temperature;BMP_pressure;BME280_temperature;BME280_humidity;BME280_pressure;Samples;Min_cycle;Max_cycle;Signal;HPM_P1;HPM_P2
2021/08/19 00:01:18;;;;;;;2.00;1.03;;;19.00;99.90;;;;;;5034959;28;20477;-69
2021/08/19 00:03:44;;;;;;;0.80;0.80;;;19.10;99.90;;;;;;5035116;28;20542;-69
2021/08/19 00:06:11;;;;;;;1.17;1.07;;;19.10;99.90;;;;;;5034718;28;20471;-69
2021/08/19 00:08:38;;;;;;;1.43;1.20;;;19.10;99.90;;;;;;5034836;28;20452;-69
2021/08/19 00:11:05;;;;;;;0.97;0.97;;;19.00;99.90;;;;;;5034755;28;20509;-69
2021/08/19 00:13:33;;;;;;;1.43;1.33;;;19.00;99.90;;;;;;5034641;28;20476;-69
2021/08/19 00:15:59;;;;;;;1.30;1.20;;;19.00;99.90;;;;;;5034527;28;20465;-69
2021/08/19 00:18:28;;;;;;;1.10;1.10;;;19.00;99.90;;;;;;5034897;28;20526;-69
2021/08/19 00:20:54;;;;;;;1.50;1.40;;;19.00;99.90;;;;;;5034806;28;20235;-69
2021/08/19 00:23:21;;;;;;;1.83;1.73;;;18.90;99.90;;;;;;5034599;28;20620;-69
2021/08/19 00:25:48;;;;;;;1.60;1.50;;;18.90;99.90;;;;;;5034446;28;20474;-69
2021/08/19 00:28:15;;;;;;;1.27;1.17;;;18.80;99.90;;;;;;5034712;28;20233;-69
2021/08/19 00:30:42;;;;;;;1.85;1.60;;;18.80;99.90;;;;;;5034441;28;20232;-69
2021/08/19 00:33:09;;;;;;;1.35;1.25;;;18.70;99.90;;;;;;5034542;28;20601;-69
2021/08/19 00:35:37;;;;;;;1.45;1.35;;;18.70;99.90;;;;;;5034164;28;20215;-69
2021/08/19 00:38:05;;;;;;;1.10;1.00;;;18.60;99.90;;;;;;5034463;28;20206;-69
2021/08/19 00:40:33;;;;;;;1.30;1.20;;;18.60;99.90;;;;;;5034286;28;20319;-69
2021/08/19 00:43:01;;;;;;;1.40;1.30;;;18.50;99.90;;;;;;5034500;28;20304;-69
2021/08/19 00:45:29;;;;;;;0.90;0.90;;;18.50;99.90;;;;;;5034066;28;20205;-69
2021/08/19 00:47:55;;;;;;;1.50;1.40;;;18.40;99.90;;;;;;5034307;28;20205;-69
2021/08/19 00:50:22;;;;;;;1.17;1.17;;;18.40;99.90;;;;;;5034010;28;20224;-69
2021/08/19 00:52:50;;;;;;;1.10;1.10;;;18.40;99.90;;;;;;5034197;28;20295;-69
2021/08/19 00:55:18;;;;;;;1.40;1.30;;;18.40;99.90;;;;;;5033953;28;20581;-69
2021/08/19 00:57:46;;;;;;;1.30;1.20;;;18.40;99.90;;;;;;5033499;28;20210;-70
2021/08/19 01:00:14;;;;;;;1.83;1.40;;;18.40;99.90;;;;;;5034005;28;20232;-69
2021/08/19 01:02:45;;;;;;;1.30;1.20;;;18.40;99.90;;;;;;5034135;28;20498;-69
2021/08/19 01:05:13;;;;;;;1.10;1.00;;;18.50;99.90;;;;;;5033700;28;20723;-69
2021/08/19 01:07:40;;;;;;;1.10;1.00;;;18.40;99.90;;;;;;5033907;28;20209;-69
2021/08/19 01:10:09;;;;;;;1.05;0.95;;;18.50;99.90;;;;;;5033619;28;20294;-69
2021/08/19 01:12:37;;;;;;;1.15;1.10;;;18.50;99.90;;;;;;5033640;28;20208;-69
2021/08/19 01:15:05;;;;;;;0.90;0.90;;;18.40;99.90;;;;;;5033630;28;20323;-69
2021/08/19 01:17:32;;;;;;;1.45;1.35;;;18.50;99.90;;;;;;5033598;28;20212;-69
2021/08/19 01:19:59;;;;;;;1.60;1.50;;;18.50;99.90;;;;;;5033777;28;20204;-69
2021/08/19 01:22:26;;;;;;;1.27;1.20;;;18.50;99.90;;;;;;5033904;28;20231;-69
2021/08/19 01:24:54;;;;;;;1.23;1.15;;;18.50;99.90;;;;;;5033479;28;20204;-69
2021/08/19 01:27:23;;;;;;;1.05;1.00;;;18.50;99.90;;;;;;5033731;28;20299;-69
2021/08/19 01:29:51;;;;;;;1.30;1.20;;;18.50;99.90;;;;;;5033658;28;20208;-69
2021/08/19 01:32:19;;;;;;;2.35;1.55;;;18.50;99.90;;;;;;5033746;28;20204;-69
2021/08/19 01:34:46;;;;;;;1.20;1.20;;;18.50;99.90;;;;;;5033350;28;20228;-70
2021/08/19 01:37:15;;;;;;;1.27;1.17;;;18.50;99.90;;;;;;5033639;28;20208;-69
2021/08/19 01:39:42;;;;;;;1.20;1.10;;;18.50;99.90;;;;;;5033461;28;20296;-69
2021/08/19 01:42:09;;;;;;;1.25;1.20;;;18.50;99.90;;;;;;5033506;28;20335;-69
2021/08/19 01:44:38;;;;;;;1.30;1.10;;;18.50;99.90;;;;;;5033290;28;20206;-69
2021/08/19 01:47:07;;;;;;;1.00;1.00;;;18.50;99.90;;;;;;5033409;28;20201;-69
2021/08/19 01:49:35;;;;;;;1.00;1.00;;;18.60;99.90;;;;;;5033403;28;20215;-69
2021/08/19 01:52:05;;;;;;;1.25;1.13;;;18.60;99.90;;;;;;5033087;28;20966;-69
2021/08/19 01:54:32;;;;;;;1.30;1.20;;;18.60;99.90;;;;;;5033382;28;20236;-69
2021/08/19 01:56:59;;;;;;;1.47;1.37;;;18.60;99.90;;;;;;5033001;28;20445;-69
2021/08/19 01:59:28;;;;;;;1.33;1.30;;;18.60;99.90;;;;;;5033179;28;20450;-69
2021/08/19 02:01:57;;;;;;;1.10;1.00;;;18.50;99.90;;;;;;5033306;28;20458;-69
2021/08/19 02:04:24;;;;;;;1.17;1.10;;;18.60;99.90;;;;;;5033293;28;20450;-69
2021/08/19 02:06:51;;;;;;;1.30;1.20;;;18.60;99.90;;;;;;5032951;28;20208;-69
2021/08/19 02:09:17;;;;;;;1.00;0.90;;;18.60;99.90;;;;;;5034236;28;20534;-69
2021/08/19 02:11:44;;;;;;;1.77;1.27;;;18.60;99.90;;;;;;5036930;28;21035;-69
2021/08/19 02:14:12;;;;;;;1.10;1.00;;;18.60;99.90;;;;;;5036995;28;20984;-69
2021/08/19 02:16:38;;;;;;;1.20;1.10;;;18.50;99.90;;;;;;5036674;28;20219;-69
2021/08/19 02:19:07;;;;;;;1.03;0.93;;;18.50;99.90;;;;;;5037012;28;20448;-69
2021/08/19 02:21:34;;;;;;;1.30;1.00;;;18.60;99.90;;;;;;5037064;28;20826;-69
2021/08/19 02:24:00;;;;;;;1.15;1.05;;;18.60;99.90;;;;;;5037088;28;20203;-69
2021/08/19 02:26:27;;;;;;;1.40;1.20;;;18.60;99.90;;;;;;5036742;28;20228;-69
2021/08/19 02:28:54;;;;;;;1.25;1.20;;;18.60;99.90;;;;;;5036877;28;20450;-69
2021/08/19 02:31:21;;;;;;;1.33;1.23;;;18.50;99.90;;;;;;5036802;28;20577;-69
2021/08/19 02:33:48;;;;;;;1.20;1.20;;;18.50;99.90;;;;;;5036791;28;20669;-69
2021/08/19 02:36:16;;;;;;;1.30;1.20;;;18.40;99.90;;;;;;5036632;28;20236;-69
2021/08/19 02:38:43;;;;;;;1.17;1.08;;;18.50;99.90;;;;;;5036742;28;20296;-69
2021/08/19 02:41:09;;;;;;;1.40;1.30;;;18.40;99.90;;;;;;5036593;28;20252;-69
2021/08/19 02:43:42;;;;;;;1.38;0.95;;;18.40;99.90;;;;;;5036671;28;20236;-69
2021/08/19 02:46:09;;;;;;;2.25;1.30;;;18.40;99.90;;;;;;5036355;28;20214;-69
2021/08/19 02:48:36;;;;;;;1.33;1.23;;;18.40;99.90;;;;;;5036563;28;20563;-69
2021/08/19 02:51:03;;;;;;;1.30;1.20;;;18.40;99.90;;;;;;5036624;28;20557;-69
2021/08/19 02:53:31;;;;;;;1.20;1.20;;;18.40;99.90;;;;;;5036405;28;20204;-69
2021/08/19 02:55:58;;;;;;;1.40;1.30;;;18.40;99.90;;;;;;5036117;28;20200;-69
2021/08/19 02:58:25;;;;;;;1.27;1.17;;;18.40;99.90;;;;;;5036377;28;20299;-69
2021/08/19 03:00:51;;;;;;;1.08;1.08;;;18.40;99.90;;;;;;5036124;28;20722;-69
2021/08/19 03:03:18;;;;;;;1.65;1.30;;;18.50;99.90;;;;;;5036287;28;20204;-69
2021/08/19 03:05:45;;;;;;;1.45;1.10;;;18.40;99.90;;;;;;5035884;28;20201;-69
2021/08/19 03:08:12;;;;;;;1.20;1.10;;;18.40;99.90;;;;;;5036051;28;20658;-69
2021/08/19 03:10:40;;;;;;;1.80;1.20;;;18.30;99.90;;;;;;5035941;28;20311;-69
2021/08/19 03:13:07;;;;;;;1.73;1.40;;;18.30;99.90;;;;;;5036164;28;20797;-69
2021/08/19 03:15:34;;;;;;;1.33;1.10;;;18.30;99.90;;;;;;5035679;28;20489;-70
2021/08/19 03:18:00;;;;;;;1.25;1.15;;;18.30;99.90;;;;;;5035899;28;20215;-69
2021/08/19 03:20:27;;;;;;;1.40;1.30;;;18.30;99.90;;;;;;5035353;28;20228;-69
2021/08/19 03:22:55;;;;;;;1.50;1.40;;;18.30;99.90;;;;;;5035703;28;20208;-69
2021/08/19 03:25:22;;;;;;;1.10;1.10;;;18.30;99.90;;;;;;5035732;28;20196;-69
2021/08/19 03:27:50;;;;;;;1.60;1.50;;;18.30;99.90;;;;;;5035566;28;20287;-69
2021/08/19 03:30:17;;;;;;;1.88;1.77;;;18.30;99.90;;;;;;5035750;28;20315;-69
2021/08/19 03:32:44;;;;;;;1.20;1.10;;;18.30;99.90;;;;;;5035845;28;20300;-69
2021/08/19 03:35:11;;;;;;;5.28;3.45;;;18.40;99.90;;;;;;5035436;28;20663;-70
2021/08/19 03:37:40;;;;;;;1.80;1.70;;;18.30;99.90;;;;;;5035664;28;20200;-69
2021/08/19 03:40:08;;;;;;;1.45;1.35;;;18.30;99.90;;;;;;5035503;28;20263;-69
2021/08/19 03:42:37;;;;;;;1.13;1.02;;;18.30;99.90;;;;;;5035577;28;20212;-69
2021/08/19 03:45:08;;;;;;;1.55;1.40;;;18.30;99.90;;;;;;5035314;28;20312;-69
2021/08/19 03:47:35;;;;;;;1.40;1.20;;;18.40;99.90;;;;;;5035618;28;20212;-69
2021/08/19 03:50:01;;;;;;;2.00;1.60;;;18.50;99.90;;;;;;5035259;28;20298;-69
2021/08/19 03:52:28;;;;;;;2.10;1.35;;;18.50;99.90;;;;;;5035190;28;20542;-69
2021/08/19 03:54:55;;;;;;;1.27;1.17;;;18.50;99.90;;;;;;5035112;28;20224;-69
2021/08/19 03:57:22;;;;;;;1.20;1.20;;;18.50;99.90;;;;;;5035044;28;20211;-69
2021/08/19 03:59:49;;;;;;;1.40;1.30;;;18.50;99.90;;;;;;5035200;28;20291;-70
2021/08/19 04:02:17;;;;;;;1.50;1.40;;;18.50;99.90;;;;;;5034860;28;20558;-69
2021/08/19 04:04:44;;;;;;;1.40;1.30;;;18.40;99.90;;;;;;5034860;28;20446;-70
2021/08/19 04:07:10;;;;;;;1.60;1.50;;;18.50;99.90;;;;;;5035124;28;20295;-69
2021/08/19 04:09:37;;;;;;;1.50;1.40;;;18.50;99.90;;;;;;5035010;28;20311;-69
2021/08/19 04:12:05;;;;;;;2.05;1.70;;;18.50;99.90;;;;;;5035000;28;20318;-69
2021/08/19 04:14:32;;;;;;;1.40;1.30;;;18.50;99.90;;;;;;5034933;28;20583;-69
2021/08/19 04:16:59;;;;;;;1.45;1.35;;;18.40;99.90;;;;;;5034683;28;20451;-69
2021/08/19 04:19:27;;;;;;;2.00;1.80;;;18.30;99.90;;;;;;5034792;28;20701;-69
2021/08/19 04:21:54;;;;;;;1.30;1.20;;;18.30;99.90;;;;;;5034422;28;20319;-69
2021/08/19 04:24:20;;;;;;;1.40;1.30;;;18.30;99.90;;;;;;5034818;28;20247;-69
2021/08/19 04:26:47;;;;;;;1.80;1.50;;;18.30;99.90;;;;;;5034565;28;20291;-69
2021/08/19 04:29:14;;;;;;;1.90;1.40;;;18.30;99.90;;;;;;5035104;28;20286;-69
2021/08/19 04:31:44;;;;;;;1.70;1.38;;;18.40;99.90;;;;;;5033758;28;20224;-69
2021/08/19 04:34:11;;;;;;;1.60;1.50;;;18.40;99.90;;;;;;5034604;28;20208;-69
2021/08/19 04:36:39;;;;;;;1.48;1.38;;;18.40;99.90;;;;;;5034129;28;20200;-69
2021/08/19 04:39:06;;;;;;;1.60;1.50;;;18.30;99.90;;;;;;5034549;28;20623;-69
2021/08/19 04:41:33;;;;;;;1.95;1.35;;;18.30;99.90;;;;;;5034466;28;20225;-69
2021/08/19 04:44:00;;;;;;;1.50;1.40;;;18.30;99.90;;;;;;5034271;28;20688;-69
2021/08/19 04:46:27;;;;;;;1.90;1.70;;;18.40;99.90;;;;;;5034217;28;20302;-69
2021/08/19 04:48:53;;;;;;;1.85;1.60;;;18.30;99.90;;;;;;5034307;28;20218;-69
2021/08/19 04:51:20;;;;;;;1.57;1.23;;;18.30;99.90;;;;;;5033918;28;20310;-69
2021/08/19 04:53:48;;;;;;;1.50;1.40;;;18.20;99.90;;;;;;5034281;28;20470;-69
2021/08/19 04:56:15;;;;;;;1.65;1.45;;;18.10;99.90;;;;;;5033998;28;20585;-69
2021/08/19 04:58:42;;;;;;;1.70;1.60;;;17.90;99.90;;;;;;5034050;28;20215;-69
2021/08/19 05:01:11;;;;;;;1.40;1.10;;;17.90;99.90;;;;;;5033935;28;20220;-69
2021/08/19 05:03:41;;;;;;;1.50;1.40;;;17.90;99.90;;;;;;5034073;28;20204;-69
2021/08/19 05:06:10;;;;;;;1.58;1.35;;;17.80;99.90;;;;;;5033915;28;20207;-69
2021/08/19 05:08:37;;;;;;;1.27;1.17;;;17.80;99.90;;;;;;5033971;28;20208;-69
2021/08/19 05:11:05;;;;;;;1.52;1.40;;;17.80;99.90;;;;;;5033857;28;20234;-69
2021/08/19 05:13:32;;;;;;;1.30;1.20;;;17.90;99.90;;;;;;5033795;28;20781;-69
2021/08/19 05:15:59;;;;;;;1.27;1.20;;;17.90;99.90;;;;;;5033367;28;20780;-70
2021/08/19 05:18:27;;;;;;;1.55;1.45;;;18.00;99.90;;;;;;5033874;28;20212;-69
2021/08/19 05:20:54;;;;;;;1.73;1.63;;;18.00;99.90;;;;;;5033823;28;20228;-69
2021/08/19 05:23:21;;;;;;;1.70;1.20;;;18.10;99.90;;;;;;5033812;28;20207;-69
2021/08/19 05:25:48;;;;;;;1.58;1.48;;;18.10;99.90;;;;;;5033335;28;20200;-70
2021/08/19 05:28:16;;;;;;;1.55;1.45;;;18.20;99.90;;;;;;5033762;28;20209;-69
2021/08/19 05:30:43;;;;;;;1.42;1.33;;;18.20;99.90;;;;;;5033649;28;20331;-69
2021/08/19 05:33:10;;;;;;;1.50;1.40;;;18.20;99.90;;;;;;5033647;28;20201;-69
2021/08/19 05:35:36;;;;;;;1.13;1.13;;;18.20;99.90;;;;;;5033362;28;20659;-70
2021/08/19 05:38:03;;;;;;;1.42;1.33;;;18.20;99.90;;;;;;5033436;28;20762;-69
2021/08/19 05:40:30;;;;;;;1.20;1.10;;;18.30;99.90;;;;;;5033417;28;20586;-69
2021/08/19 05:42:57;;;;;;;1.70;1.60;;;18.20;99.90;;;;;;5033029;28;20211;-69
2021/08/19 05:45:25;;;;;;;1.40;1.20;;;18.20;99.90;;;;;;5033241;28;20211;-70
2021/08/19 05:47:52;;;;;;;1.27;1.17;;;18.20;99.90;;;;;;5033270;28;20674;-69
2021/08/19 05:50:19;;;;;;;1.60;1.20;;;18.20;99.90;;;;;;5033169;28;20568;-69
2021/08/19 05:52:46;;;;;;;2.35;1.50;;;18.20;99.90;;;;;;5033526;28;20299;-70
2021/08/19 05:55:13;;;;;;;2.05;1.60;;;18.20;99.90;;;;;;5033170;28;20589;-70
2021/08/19 05:57:43;;;;;;;1.30;1.20;;;18.20;99.90;;;;;;5033344;28;20205;-70
2021/08/19 06:00:11;;;;;;;1.55;1.45;;;18.10;99.90;;;;;;5033301;28;20289;-69
2021/08/19 06:02:39;;;;;;;1.73;1.63;;;18.10;99.90;;;;;;5033419;28;20204;-69
2021/08/19 06:05:07;;;;;;;1.40;1.30;;;18.20;99.90;;;;;;5033160;28;20204;-70
2021/08/19 06:07:34;;;;;;;3.35;1.40;;;18.20;99.90;;;;;;5033234;28;20209;-69
2021/08/19 06:10:01;;;;;;;1.43;1.20;;;18.40;99.90;;;;;;5033184;28;20205;-69
2021/08/19 06:12:28;;;;;;;1.42;1.33;;;18.50;99.90;;;;;;5033282;28;20868;-69
2021/08/19 06:14:54;;;;;;;1.60;1.50;;;18.60;99.90;;;;;;5033032;28;20232;-69
2021/08/19 06:17:21;;;;;;;1.70;1.60;;;18.60;99.90;;;;;;5033002;28;20300;-69
2021/08/19 06:19:49;;;;;;;1.43;1.33;;;18.60;99.90;;;;;;5033073;28;20213;-69
2021/08/19 06:22:16;;;;;;;1.30;1.20;;;18.70;99.90;;;;;;5032921;28;20462;-69
2021/08/19 06:24:43;;;;;;;3.13;1.43;;;18.60;99.90;;;;;;5033053;28;20444;-70
2021/08/19 06:27:10;;;;;;;2.13;1.30;;;18.60;99.90;;;;;;5033070;28;20485;-70
2021/08/19 06:29:37;;;;;;;1.30;1.20;;;18.60;99.90;;;;;;5032888;28;20534;-70
2021/08/19 06:32:04;;;;;;;1.70;1.60;;;18.60;99.90;;;;;;5033132;28;20646;-69
2021/08/19 06:34:32;;;;;;;2.10;1.47;;;18.70;99.90;;;;;;5032944;28;20211;-70
2021/08/19 06:37:00;;;;;;;1.70;1.50;;;18.70;99.90;;;;;;5032891;28;20515;-70
2021/08/19 06:39:27;;;;;;;1.55;1.45;;;18.80;99.90;;;;;;5032915;28;20443;-70
2021/08/19 06:41:53;;;;;;;2.88;1.52;;;18.80;99.90;;;;;;5032998;28;20315;-70
2021/08/19 06:44:20;;;;;;;1.80;1.70;;;18.90;99.90;;;;;;5033066;28;20205;-70
2021/08/19 06:46:47;;;;;;;1.90;1.70;;;19.00;99.90;;;;;;5032772;28;20448;-70
2021/08/19 06:49:14;;;;;;;1.43;1.33;;;19.10;99.90;;;;;;5032941;28;20540;-70
2021/08/19 06:51:41;;;;;;;2.40;1.70;;;19.00;99.90;;;;;;5032671;28;20826;-70
2021/08/19 06:54:09;;;;;;;1.20;1.15;;;19.00;99.90;;;;;;5032640;28;20447;-69
2021/08/19 06:56:36;;;;;;;1.70;1.60;;;19.10;99.90;;;;;;5035505;28;20262;-70
2021/08/19 06:59:03;;;;;;;1.30;1.30;;;19.20;99.90;;;;;;5036268;28;20486;-70
2021/08/19 07:01:29;;;;;;;1.50;1.40;;;19.30;99.90;;;;;;5036392;28;20227;-70
2021/08/19 07:03:56;;;;;;;1.50;1.40;;;19.40;99.90;;;;;;5036363;28;20822;-69
2021/08/19 07:06:23;;;;;;;1.37;1.27;;;19.60;99.90;;;;;;5035917;28;20638;-70
2021/08/19 07:08:50;;;;;;;1.70;1.60;;;19.70;99.90;;;;;;5036203;28;20443;-69
2021/08/19 07:11:18;;;;;;;4.80;3.70;;;19.80;99.90;;;;;;5036219;28;20553;-69
2021/08/19 07:13:45;;;;;;;3.27;2.97;;;19.80;99.90;;;;;;5036168;28;20452;-69
2021/08/19 07:16:12;;;;;;;1.73;1.63;;;19.90;99.90;;;;;;5035682;28;20490;-69
2021/08/19 07:18:39;;;;;;;1.40;1.30;;;20.00;99.90;;;;;;5036064;28;20447;-69
2021/08/19 07:21:05;;;;;;;1.50;1.40;;;20.00;99.90;;;;;;5035792;28;20469;-70
2021/08/19 07:23:33;;;;;;;2.07;1.57;;;20.00;99.90;;;;;;5035992;28;20544;-69
2021/08/19 07:26:00;;;;;;;1.30;1.20;;;20.10;99.90;;;;;;5035600;28;20932;-69
2021/08/19 07:28:28;;;;;;;1.30;1.20;;;20.10;99.90;;;;;;5035900;28;20536;-70
2021/08/19 07:30:55;;;;;;;1.20;1.10;;;20.20;99.90;;;;;;5035680;28;20473;-69
2021/08/19 07:33:21;;;;;;;1.27;1.20;;;20.20;99.90;;;;;;5035526;28;20548;-70
2021/08/19 07:35:49;;;;;;;1.20;1.10;;;20.20;99.90;;;;;;5035370;28;20482;-70
2021/08/19 07:38:18;;;;;;;1.33;1.23;;;20.30;99.90;;;;;;5035716;28;20457;-70
2021/08/19 07:40:46;;;;;;;0.97;0.97;;;20.40;99.90;;;;;;5035565;28;20489;-70
2021/08/19 07:43:12;;;;;;;1.20;1.10;;;20.40;99.90;;;;;;5035682;28;20477;-69
2021/08/19 07:45:41;;;;;;;1.07;1.00;;;20.40;99.90;;;;;;5035309;28;20548;-70
2021/08/19 07:48:09;;;;;;;1.60;1.50;;;20.50;99.90;;;;;;5035432;28;20939;-70
2021/08/19 07:50:36;;;;;;;1.60;1.50;;;20.50;99.90;;;;;;5035329;28;20481;-70
2021/08/19 07:53:03;;;;;;;6.50;4.00;;;20.60;99.90;;;;;;5035446;28;20445;-70
2021/08/19 07:55:30;;;;;;;2.60;2.10;;;20.60;99.90;;;;;;5035078;28;20482;-69
2021/08/19 07:57:57;;;;;;;1.73;1.63;;;20.60;99.90;;;;;;5035312;28;20529;-70
2021/08/19 08:00:27;;;;;;;1.13;1.10;;;20.60;99.90;;;;;;5035046;28;20520;-70
2021/08/19 08:02:56;;;;;;;1.70;1.60;;;20.60;99.90;;;;;;5035240;28;20458;-70
2021/08/19 08:05:24;;;;;;;1.50;1.40;;;20.60;99.90;;;;;;5034793;28;21010;-70
2021/08/19 08:07:51;;;;;;;1.00;1.00;;;20.50;99.90;;;;;;5035100;28;20449;-70
2021/08/19 08:10:18;;;;;;;1.80;1.70;;;20.60;99.90;;;;;;5034862;28;21046;-70
2021/08/19 08:12:45;;;;;;;1.27;1.17;;;20.60;99.90;;;;;;5034815;28;20540;-70
2021/08/19 08:15:13;;;;;;;1.27;1.23;;;20.60;99.90;;;;;;5034681;28;20504;-70
2021/08/19 08:17:43;;;;;;;1.07;1.03;;;20.50;99.90;;;;;;5034617;28;20533;-70
2021/08/19 08:20:13;;;;;;;1.93;1.80;;;20.50;99.90;;;;;;5034836;28;20445;-70
2021/08/19 08:22:43;;;;;;;1.50;1.33;;;20.60;99.90;;;;;;5034985;28;20452;-70
2021/08/19 08:25:11;;;;;;;1.73;1.57;;;20.70;99.90;;;;;;5034695;28;20480;-70
2021/08/19 08:27:38;;;;;;;1.47;1.33;;;21.00;99.90;;;;;;5034666;28;20453;-70
2021/08/19 08:30:07;;;;;;;1.43;1.33;;;21.10;99.90;;;;;;5034558;28;20493;-70
2021/08/19 08:32:33;;;;;;;1.67;1.57;;;21.20;99.90;;;;;;5034465;28;20809;-70
2021/08/19 08:35:00;;;;;;;2.17;1.50;;;21.20;99.90;;;;;;5034459;28;20446;-70
2021/08/19 08:37:29;;;;;;;1.50;1.40;;;21.30;99.90;;;;;;5034876;28;20882;-70
2021/08/19 08:39:56;;;;;;;1.30;1.20;;;21.40;99.90;;;;;;5034483;28;20453;-70
2021/08/19 08:42:23;;;;;;;1.70;1.60;;;21.40;99.90;;;;;;5034221;28;21010;-70
2021/08/19 08:44:50;;;;;;;2.53;1.30;;;21.40;99.90;;;;;;5034052;28;20538;-70
2021/08/19 08:47:19;;;;;;;1.70;1.60;;;21.60;99.90;;;;;;5034381;28;20446;-70
2021/08/19 08:49:46;;;;;;;1.60;1.50;;;21.70;99.90;;;;;;5034212;28;20492;-70
2021/08/19 08:52:13;;;;;;;1.73;1.63;;;21.90;99.90;;;;;;5034370;28;20505;-70
2021/08/19 08:54:41;;;;;;;1.73;1.53;;;21.90;99.90;;;;;;5034230;28;20485;-70
2021/08/19 08:57:08;;;;;;;1.50;1.40;;;21.90;99.90;;;;;;5034005;28;20507;-70
2021/08/19 08:59:35;;;;;;;1.23;1.13;;;21.90;99.90;;;;;;5033964;28;20538;-70
2021/08/19 09:02:02;;;;;;;1.50;1.40;;;22.00;99.90;;;;;;5034162;28;20495;-70
2021/08/19 09:04:29;;;;;;;1.60;1.50;;;21.90;99.90;;;;;;5034110;28;20447;-70
2021/08/19 09:07:03;;;;;;;1.20;1.10;;;22.20;99.90;;;;;;5033701;28;20477;-70
2021/08/19 09:09:30;;;;;;;1.47;1.37;;;22.20;99.90;;;;;;5033935;28;20924;-70
2021/08/19 09:12:03;;;;;;;1.57;1.47;;;21.90;99.90;;;;;;5033984;28;20879;-70
2021/08/19 09:14:32;;;;;;;1.27;1.17;;;21.90;99.90;;;;;;5033991;28;20522;-70
2021/08/19 09:16:59;;;;;;;1.40;1.30;;;21.70;99.90;;;;;;5033521;28;20479;-70
2021/08/19 09:19:30;;;;;;;1.93;1.57;;;21.60;99.90;;;;;;5033409;28;20453;-70
2021/08/19 09:21:58;;;;;;;1.50;1.40;;;21.60;99.90;;;;;;5033527;28;20553;-70
2021/08/19 09:24:27;;;;;;;1.43;1.33;;;21.40;99.90;;;;;;5033808;28;20541;-70
2021/08/19 09:26:55;;;;;;;1.40;1.30;;;21.30;99.90;;;;;;5033506;28;20522;-70
2021/08/19 09:29:26;;;;;;;2.30;1.60;;;21.10;99.90;;;;;;5033739;28;20454;-70
2021/08/19 09:31:54;;;;;;;1.50;1.40;;;21.10;99.90;;;;;;5033511;28;20994;-70
2021/08/19 09:34:22;;;;;;;1.70;1.60;;;21.30;99.90;;;;;;5033583;28;20500;-70
2021/08/19 09:37:00;;;;;;;1.97;1.60;;;21.40;99.90;;;;;;5033404;28;20479;-70
2021/08/19 09:39:35;;;;;;;1.33;1.30;;;21.60;99.90;;;;;;5033424;28;20454;-70
2021/08/19 09:42:01;;;;;;;1.00;1.00;;;22.10;99.90;;;;;;5033686;28;20467;-70
2021/08/19 09:44:32;;;;;;;2.43;1.53;;;23.40;99.90;;;;;;5033535;28;20536;-70
2021/08/19 09:47:00;;;;;;;2.23;1.50;;;24.40;99.90;;;;;;5033375;28;20529;-70
2021/08/19 09:49:29;;;;;;;1.63;1.53;;;24.40;99.30;;;;;;5033296;28;20445;-70
2021/08/19 09:52:07;;;;;;;1.13;1.13;;;24.10;99.90;;;;;;5033213;28;20471;-70
2021/08/19 09:54:35;;;;;;;1.43;1.33;;;23.80;99.90;;;;;;5033376;28;21041;-70
2021/08/19 09:57:02;;;;;;;1.50;1.40;;;23.60;99.90;;;;;;5033153;28;20482;-70
2021/08/19 09:59:36;;;;;;;1.17;1.07;;;23.70;99.70;;;;;;5033423;28;20442;-70
2021/08/19 10:02:04;;;;;;;1.10;1.10;;;24.10;97.40;;;;;;5033436;28;20504;-70
2021/08/19 10:04:31;;;;;;;0.77;0.77;;;24.30;97.40;;;;;;5033402;28;20501;-70
2021/08/19 10:06:59;;;;;;;1.00;0.90;;;24.40;95.40;;;;;;5033157;28;20442;-70
2021/08/19 10:09:26;;;;;;;0.77;0.77;;;24.60;95.90;;;;;;5033269;28;20446;-71
2021/08/19 10:11:55;;;;;;;0.70;0.70;;;24.70;95.70;;;;;;5033015;28;20554;-70
2021/08/19 10:14:23;;;;;;;0.70;0.60;;;24.90;93.80;;;;;;5033329;28;20846;-70
2021/08/19 10:16:53;;;;;;;0.70;0.70;;;25.00;93.50;;;;;;5032858;28;20570;-71
2021/08/19 10:19:26;;;;;;;0.70;0.70;;;25.00;93.70;;;;;;5033386;28;20447;-71
2021/08/19 10:22:01;;;;;;;1.30;0.70;;;24.70;91.50;;;;;;5033286;28;20477;-70
2021/08/19 10:24:34;;;;;;;0.80;0.80;;;24.30;92.70;;;;;;5033013;28;20444;-70
2021/08/19 10:27:13;;;;;;;0.87;0.87;;;24.00;94.00;;;;;;5033068;28;20515;-70
2021/08/19 10:29:45;;;;;;;0.87;0.80;;;23.80;94.30;;;;;;5033232;28;20499;-70
2021/08/19 10:32:24;;;;;;;0.70;0.70;;;23.70;94.00;;;;;;5036970;28;20468;-70
2021/08/19 10:35:05;;;;;;;1.00;1.00;;;24.00;95.10;;;;;;5036748;28;20450;-71
2021/08/19 10:38:02;;;;;;;1.43;1.33;;;24.30;94.50;;;;;;5036868;28;20488;-70
2021/08/19 10:40:32;;;;;;;1.27;1.17;;;24.10;93.90;;;;;;5036739;28;20474;-70
2021/08/19 10:43:01;;;;;;;1.13;1.03;;;23.90;94.30;;;;;;5036605;28;20428;-71
2021/08/19 10:45:43;;;;;;;0.93;0.90;;;23.60;94.10;;;;;;5036527;28;20507;-70
2021/08/19 10:48:24;;;;;;;0.80;0.80;;;23.10;94.20;;;;;;5036478;28;20445;-70
2021/08/19 10:50:51;;;;;;;0.97;0.70;;;23.00;94.60;;;;;;5036500;28;20475;-70
2021/08/19 10:53:21;;;;;;;3.47;2.63;;;22.90;95.40;;;;;;5036602;28;20506;-71
2021/08/19 10:55:49;;;;;;;1.10;1.10;;;23.00;95.80;;;;;;5036163;28;20457;-70
2021/08/19 10:58:24;;;;;;;1.00;1.00;;;23.00;95.40;;;;;;5036440;28;20490;-70
2021/08/19 11:00:51;;;;;;;2.07;1.30;;;23.20;96.00;;;;;;5036092;28;20997;-70
2021/08/19 11:03:47;;;;;;;1.33;1.00;;;23.20;94.70;;;;;;5036424;28;20444;-70
2021/08/19 11:06:17;;;;;;;0.70;0.70;;;23.30;95.10;;;;;;5035982;28;20925;-70
2021/08/19 11:08:51;;;;;;;1.30;1.20;;;23.20;94.90;;;;;;5036389;28;20450;-70
2021/08/19 11:11:28;;;;;;;0.70;0.70;;;23.20;94.50;;;;;;5036277;28;20530;-70
2021/08/19 11:14:04;;;;;;;0.90;0.90;;;23.10;94.90;;;;;;5036127;28;20992;-70
2021/08/19 11:16:31;;;;;;;1.23;1.10;;;23.10;94.60;;;;;;5035514;28;20569;-70
2021/08/19 11:19:20;;;;;;;0.90;0.90;;;23.00;96.10;;;;;;5036035;28;20448;-70
2021/08/19 11:21:52;;;;;;;0.93;0.80;;;23.00;95.70;;;;;;5036086;28;20903;-70
2021/08/19 11:24:19;;;;;;;0.90;0.90;;;22.70;95.10;;;;;;5035899;28;20475;-70
2021/08/19 11:27:00;;;;;;;2.93;2.33;;;22.50;95.10;;;;;;5035800;28;20447;-70
2021/08/19 11:29:31;;;;;;;2.40;1.00;;;22.40;96.00;;;;;;5035940;28;20537;-70
2021/08/19 11:32:04;;;;;;;1.10;1.00;;;22.30;96.20;;;;;;5035890;28;20884;-70
2021/08/19 11:34:32;;;;;;;1.03;1.00;;;22.30;95.60;;;;;;5035592;28;20965;-70
2021/08/19 11:36:59;;;;;;;0.73;0.73;;;22.30;97.50;;;;;;5035541;28;20811;-70
2021/08/19 11:39:27;;;;;;;1.10;1.00;;;22.10;97.20;;;;;;5035716;28;20628;-70
2021/08/19 11:42:03;;;;;;;0.80;0.80;;;22.00;97.50;;;;;;5034936;28;20473;-69
2021/08/19 11:44:30;;;;;;;0.87;0.87;;;21.80;97.90;;;;;;5035482;28;20497;-70
2021/08/19 11:47:05;;;;;;;0.83;0.83;;;21.70;98.30;;;;;;5035412;28;20446;-69
2021/08/19 11:49:33;;;;;;;1.10;1.00;;;21.60;99.40;;;;;;5035539;28;20855;-70
2021/08/19 11:52:06;;;;;;;1.60;1.00;;;21.60;99.90;;;;;;5035370;28;20987;-70
2021/08/19 11:54:45;;;;;;;1.07;1.03;;;21.70;99.50;;;;;;5035523;28;20453;-70
2021/08/19 11:57:22;;;;;;;0.97;0.97;;;21.70;99.60;;;;;;5035371;28;20475;-70
2021/08/19 12:00:00;;;;;;;0.90;0.90;;;21.50;99.10;;;;;;5035338;28;20508;-70
2021/08/19 12:02:27;;;;;;;0.97;0.97;;;21.60;99.90;;;;;;5035251;28;20525;-70
2021/08/19 12:05:07;;;;;;;1.00;1.00;;;21.70;99.90;;;;;;5035102;28;20529;-71
2021/08/19 12:07:35;;;;;;;1.10;1.03;;;21.90;99.90;;;;;;5035061;28;21004;-71
2021/08/19 12:10:03;;;;;;;1.10;1.10;;;22.10;99.90;;;;;;5034948;28;20530;-70
2021/08/19 12:12:35;;;;;;;1.50;1.40;;;22.30;99.10;;;;;;5034824;28;20447;-71
2021/08/19 12:15:03;;;;;;;1.57;1.47;;;22.60;99.30;;;;;;5034854;28;20817;-70
2021/08/19 12:17:30;;;;;;;1.60;1.50;;;22.70;99.90;;;;;;5034667;28;20488;-70
2021/08/19 12:20:12;;;;;;;1.40;1.30;;;22.80;99.70;;;;;;5034864;28;20455;-70
2021/08/19 12:22:40;;;;;;;1.77;1.23;;;22.70;99.00;;;;;;5034981;28;20440;-70
2021/08/19 12:25:15;;;;;;;1.30;1.20;;;22.70;99.20;;;;;;5034703;28;20443;-70
2021/08/19 12:27:42;;;;;;;1.30;1.20;;;22.80;99.90;;;;;;5034801;28;20533;-70
2021/08/19 12:30:10;;;;;;;1.60;1.50;;;22.80;98.40;;;;;;5034681;28;20446;-71
2021/08/19 12:32:38;;;;;;;1.50;1.40;;;22.80;99.60;;;;;;5034582;28;20509;-71
2021/08/19 12:35:07;;;;;;;1.80;1.70;;;23.10;99.40;;;;;;5034483;28;20451;-71
2021/08/19 12:37:37;;;;;;;1.37;1.27;;;23.10;98.40;;;;;;5034537;28;20479;-71
2021/08/19 12:40:11;;;;;;;1.57;1.47;;;23.00;98.00;;;;;;5034447;28;20438;-70
2021/08/19 12:42:39;;;;;;;2.30;1.30;;;22.80;98.00;;;;;;5034599;28;20447;-71
2021/08/19 12:45:08;;;;;;;1.50;1.40;;;22.80;99.10;;;;;;5034214;28;20444;-70
2021/08/19 12:47:36;;;;;;;1.43;1.33;;;22.80;99.00;;;;;;5034493;28;20435;-70
2021/08/19 12:50:03;;;;;;;1.30;1.20;;;22.80;98.90;;;;;;5034358;28;20490;-70
2021/08/19 12:52:30;;;;;;;1.20;1.10;;;22.80;99.10;;;;;;5033464;28;20509;-70
2021/08/19 12:55:09;;;;;;;1.57;1.47;;;22.80;99.90;;;;;;5034033;28;20443;-70